Hauptseite
METAR-TAF:

METAR-TAF

Flughäfen :

Porto Alegre, Rio Grande do Sul, Brasilien

Flughafen Porto Alegre

Breite: 30-00S, Länge: 051-11W, Höhe: 3 m

Beobachtung

Neuester Wetterbericht von vor 1 Stunde und 4 Minuten, um 22:00 UTC
Wind 15 kt aus Ost
Temperatur 21°C
Luftfeuchtigkeit 83%
Luftdruck 1006 hPa
Sichtweite 10 km oder mehr
Aufgelockert bewölkt in der Höhe von 1700 ft
Durchbrochene Bewölkung in der Höhe von 4000 ft

METAR: SBPA 172200Z 10015KT 9999 SCT017 BKN040 21/18 Q1006

Zeit: 21:04 (23:04 UTC)

Prognose

Neuester Wetterbericht von vor 8 Stunden und 34 Minuten, um 14:30 UTC
Gültige Prognose vom 17 um 18 UTC bis 18 um 18 UTC
Wind 8 kt aus Ost/Südost
Sichtweite 10 km oder mehr
Aufgelockert bewölkt in der Höhe von 3000 ft
Übergehend zu
vom 18 um 04 UTC bis 18 um 08 UTC
Wind 2 kt aus Süd

TAF: SBPA 171430Z 1718/1818 12008KT 9999 SCT030 TX26/1718Z TN19/1808Z BECMG 1804/1808 17002KT RMK PEB

Wetterbeobachtungen und Prognosen von mehr als 4000 Flughäfen (METAR und TAF Bericht).

Die verfügbaren Stationen werden durch gelbe und rote Markierungen auf der Karte dargestellt.

Führen Sie die Maus auf sie, um den Namen der Station zu sehen.

Darauf klicken, um die Beobachtung von Wetterbeobachtungen und Prognosen zu sehen.

Um die Karte zu ändern : klicken Sie auf den grünen Tasten mit einem schwarzen Kreuz Zum Vergrößern, auf den grünen Button mit einem Gedankenstrich zu verkleinern, oder auf die grünen Pfeile für benachbarte Karten.


METAR-TAF: